sensor_id;sensor_type;location;lat;lon;timestamp;pressure;altitude;pressure_sealevel;temperature;humidity
73105;BME280;61296;50.526;30.792;2022-09-28T00:08:33;98110.78;;;12.74;99.89
73105;BME280;61296;50.526;30.792;2022-09-28T00:23:56;98098.88;;;12.57;100.00
73105;BME280;61296;50.526;30.792;2022-09-28T00:39:35;98092.00;;;12.45;100.00
73105;BME280;61296;50.526;30.792;2022-09-28T00:54:57;98104.81;;;12.55;100.00
73105;BME280;61296;50.526;30.792;2022-09-28T01:10:17;98085.88;;;12.57;100.00
73105;BME280;61296;50.526;30.792;2022-09-28T01:25:57;98089.91;;;12.53;100.00
73105;BME280;61296;50.526;30.792;2022-09-28T01:41:22;98085.06;;;12.37;99.99
73105;BME280;61296;50.526;30.792;2022-09-28T01:56:51;98086.19;;;12.39;99.88
73105;BME280;61296;50.526;30.792;2022-09-28T02:12:15;98088.59;;;12.37;99.36
73105;BME280;61296;50.526;30.792;2022-09-28T02:27:44;98092.97;;;12.35;99.18
73105;BME280;61296;50.526;30.792;2022-09-28T02:43:18;98101.97;;;12.39;98.73
73105;BME280;61296;50.526;30.792;2022-09-28T03:14:37;98113.13;;;12.32;98.75
73105;BME280;61296;50.526;30.792;2022-09-28T03:29:57;98101.56;;;12.40;98.46
73105;BME280;61296;50.526;30.792;2022-09-28T03:45:16;98104.59;;;12.46;97.64
73105;BME280;61296;50.526;30.792;2022-09-28T04:00:37;98112.00;;;12.49;97.32
73105;BME280;61296;50.526;30.792;2022-09-28T04:15:59;98084.00;;;12.31;97.09
73105;BME280;61296;50.526;30.792;2022-09-28T04:31:22;98113.06;;;12.35;97.36
73105;BME280;61296;50.526;30.792;2022-09-28T04:46:43;98104.13;;;12.28;97.30
73105;BME280;61296;50.526;30.792;2022-09-28T05:02:21;98116.13;;;12.41;97.35
73105;BME280;61296;50.526;30.792;2022-09-28T05:18:07;98114.72;;;12.53;96.59
73105;BME280;61296;50.526;30.792;2022-09-28T05:33:37;98116.19;;;12.57;96.26
73105;BME280;61296;50.526;30.792;2022-09-28T05:49:04;98110.34;;;12.75;95.20
73105;BME280;61296;50.526;30.792;2022-09-28T06:04:23;98071.59;;;12.42;94.30
73105;BME280;61296;50.526;30.792;2022-09-28T06:19:43;98128.72;;;12.82;93.19
73105;BME280;61296;50.526;30.792;2022-09-28T06:35:18;98096.69;;;12.68;93.91
73105;BME280;61296;50.526;30.792;2022-09-28T06:50:40;98117.34;;;12.99;92.71
73105;BME280;61296;50.526;30.792;2022-09-28T07:06:16;98011.13;;;12.52;91.60
73105;BME280;61296;50.526;30.792;2022-09-28T07:21:56;98091.06;;;13.11;90.02
73105;BME280;61296;50.526;30.792;2022-09-28T07:37:16;98088.09;;;13.02;90.65
73105;BME280;61296;50.526;30.792;2022-09-28T07:52:37;98079.09;;;13.18;90.61
73105;BME280;61296;50.526;30.792;2022-09-28T08:08:17;98032.28;;;13.14;88.87
73105;BME280;61296;50.526;30.792;2022-09-28T08:23:38;98053.97;;;13.48;86.69
73105;BME280;61296;50.526;30.792;2022-09-28T08:38:59;98095.69;;;14.03;85.02
73105;BME280;61296;50.526;30.792;2022-09-28T08:54:48;98092.88;;;14.35;82.41
73105;BME280;61296;50.526;30.792;2022-09-28T09:26:19;98086.97;;;14.79;79.61
73105;BME280;61296;50.526;30.792;2022-09-28T09:42:08;98081.53;;;15.17;75.28
73105;BME280;61296;50.526;30.792;2022-09-28T09:57:53;98052.97;;;15.33;72.79
73105;BME280;61296;50.526;30.792;2022-09-28T10:13:42;98096.44;;;15.74;71.69
73105;BME280;61296;50.526;30.792;2022-09-28T10:29:25;98104.28;;;15.88;72.34
73105;BME280;61296;50.526;30.792;2022-09-28T11:00:31;98095.97;;;15.88;72.82
73105;BME280;61296;50.526;30.792;2022-09-28T11:16:05;98092.66;;;15.68;73.52
73105;BME280;61296;50.526;30.792;2022-09-28T11:31:28;98082.09;;;15.24;75.96
73105;BME280;61296;50.526;30.792;2022-09-28T12:02:41;98080.56;;;15.87;73.47
73105;BME280;61296;50.526;30.792;2022-09-28T12:18:16;98085.63;;;16.01;72.15
73105;BME280;61296;50.526;30.792;2022-09-28T12:33:38;98095.13;;;16.26;72.90
73105;BME280;61296;50.526;30.792;2022-09-28T13:20:55;98083.94;;;16.16;75.41
73105;BME280;61296;50.526;30.792;2022-09-28T13:52:05;98083.44;;;15.96;76.76
73105;BME280;61296;50.526;30.792;2022-09-28T14:38:47;98041.41;;;15.85;76.50
73105;BME280;61296;50.526;30.792;2022-09-28T14:54:28;98115.78;;;15.99;77.55
73105;BME280;61296;50.526;30.792;2022-09-28T15:09:51;98099.75;;;15.69;78.55
73105;BME280;61296;50.526;30.792;2022-09-28T15:25:13;98118.13;;;15.63;79.50
73105;BME280;61296;50.526;30.792;2022-09-28T15:40:36;98167.16;;;15.66;81.87
73105;BME280;61296;50.526;30.792;2022-09-28T15:56:01;98183.16;;;15.45;83.86
73105;BME280;61296;50.526;30.792;2022-09-28T16:11:27;98067.47;;;14.40;85.77
73105;BME280;61296;50.526;30.792;2022-09-28T16:26:58;98188.56;;;15.23;86.25
73105;BME280;61296;50.526;30.792;2022-09-28T16:42:19;98193.75;;;14.92;87.82
73105;BME280;61296;50.526;30.792;2022-09-28T16:57:38;98226.91;;;15.09;87.98
73105;BME280;61296;50.526;30.792;2022-09-28T17:12:59;98165.63;;;14.65;87.56
73105;BME280;61296;50.526;30.792;2022-09-28T17:28:22;98159.50;;;14.57;87.93
73105;BME280;61296;50.526;30.792;2022-09-28T17:43:42;98250.06;;;15.02;88.17
73105;BME280;61296;50.526;30.792;2022-09-28T17:59:06;98215.19;;;14.59;88.95
73105;BME280;61296;50.526;30.792;2022-09-28T18:14:28;98264.72;;;14.01;82.71
73105;BME280;61296;50.526;30.792;2022-09-28T18:29:48;98311.19;;;13.70;82.20
73105;BME280;61296;50.526;30.792;2022-09-28T18:45:10;98322.44;;;13.16;83.51
73105;BME280;61296;50.526;30.792;2022-09-28T19:00:30;98325.41;;;12.82;84.40
73105;BME280;61296;50.526;30.792;2022-09-28T19:15:49;98364.91;;;12.49;85.99
73105;BME280;61296;50.526;30.792;2022-09-28T19:31:10;98356.03;;;12.07;86.03
73105;BME280;61296;50.526;30.792;2022-09-28T19:46:30;98408.88;;;11.98;86.93
73105;BME280;61296;50.526;30.792;2022-09-28T20:01:50;98432.75;;;11.74;86.98
73105;BME280;61296;50.526;30.792;2022-09-28T20:17:11;98429.13;;;11.43;86.83
73105;BME280;61296;50.526;30.792;2022-09-28T20:32:32;98461.50;;;11.28;88.01
73105;BME280;61296;50.526;30.792;2022-09-28T20:47:53;98478.09;;;11.18;88.31
73105;BME280;61296;50.526;30.792;2022-09-28T21:03:12;98469.66;;;10.87;89.43
73105;BME280;61296;50.526;30.792;2022-09-28T21:18:31;98512.47;;;10.95;89.29
73105;BME280;61296;50.526;30.792;2022-09-28T21:33:49;98510.09;;;10.94;89.15
73105;BME280;61296;50.526;30.792;2022-09-28T21:49:09;98387.63;;;10.05;88.67
73105;BME280;61296;50.526;30.792;2022-09-28T22:04:30;98534.97;;;10.76;88.78
73105;BME280;61296;50.526;30.792;2022-09-28T22:19:49;98553.91;;;10.49;89.05
73105;BME280;61296;50.526;30.792;2022-09-28T22:35:09;98557.50;;;10.35;89.50
73105;BME280;61296;50.526;30.792;2022-09-28T22:50:28;98565.75;;;10.18;89.22
73105;BME280;61296;50.526;30.792;2022-09-28T23:05:54;98575.19;;;9.99;89.36
73105;BME280;61296;50.526;30.792;2022-09-28T23:21:17;98584.25;;;9.96;89.45
73105;BME280;61296;50.526;30.792;2022-09-28T23:36:37;98575.63;;;10.01;89.25
73105;BME280;61296;50.526;30.792;2022-09-28T23:51:56;98447.81;;;9.04;88.18
